Time;durP1;ratioP1;P1;durP2;ratioP2;P2;SDS_P1;SDS_P2;PMS_P1;PMS_P2;Temp;Humidity;BMP_temperature;BMP_pressure;BME280_temperature;BME280_humidity;BME280_pressure;Samples;Min_cycle;Max_cycle;Signal;HPM_P1;HPM_P2
2023/01/23 00:00:52;;;;;;;19.17;13.03;;;;;;;;;;5068658;28;20434;-70
2023/01/23 00:03:17;;;;;;;23.13;14.27;;;;;;;;;;5069319;28;20451;-67
2023/01/23 00:05:43;;;;;;;22.37;14.27;;;;;;;;;;5069095;28;20413;-69
2023/01/23 00:08:09;;;;;;;18.93;12.53;;;;;;;;;;5068715;28;20162;-67
2023/01/23 00:10:34;;;;;;;23.57;13.70;;;;;;;;;;5068334;28;20178;-67
2023/01/23 00:12:59;;;;;;;20.10;13.07;;;;;;;;;;5068580;28;20674;-66
2023/01/23 00:15:26;;;;;;;21.93;13.90;;;;;;;;;;5068391;28;20207;-67
2023/01/23 00:17:52;;;;;;;20.43;14.07;;;;;;;;;;5068664;28;20185;-67
2023/01/23 00:20:17;;;;;;;20.57;14.60;;;;;;;;;;5068471;28;20893;-67
2023/01/23 00:22:42;;;;;;;22.20;13.27;;;;;;;;;;5068457;28;20162;-69
2023/01/23 00:25:08;;;;;;;21.83;12.60;;;;;;;;;;5068725;28;20180;-68
2023/01/23 00:27:33;;;;;;;19.37;13.53;;;;;;;;;;5068437;28;20196;-67
2023/01/23 00:29:59;;;;;;;20.70;14.03;;;;;;;;;;5068449;28;20899;-68
2023/01/23 00:32:24;;;;;;;17.97;12.70;;;;;;;;;;5068217;28;20202;-66
2023/01/23 00:34:50;;;;;;;22.10;13.90;;;;;;;;;;5068436;28;20181;-67
2023/01/23 00:37:15;;;;;;;19.80;13.30;;;;;;;;;;5068334;28;20557;-69
2023/01/23 00:39:42;;;;;;;22.57;13.60;;;;;;;;;;5068384;28;20214;-68
2023/01/23 00:42:07;;;;;;;22.27;13.93;;;;;;;;;;5068390;28;20639;-67
2023/01/23 00:44:33;;;;;;;17.83;13.80;;;;;;;;;;5068269;28;20446;-67
2023/01/23 00:46:59;;;;;;;21.03;13.50;;;;;;;;;;5068316;28;20200;-67
2023/01/23 00:49:24;;;;;;;21.50;13.83;;;;;;;;;;5068358;28;20205;-67
2023/01/23 00:51:51;;;;;;;20.00;13.50;;;;;;;;;;5067869;28;20249;-66
2023/01/23 00:54:18;;;;;;;21.77;12.57;;;;;;;;;;5068074;28;20208;-67
2023/01/23 00:56:44;;;;;;;19.03;13.50;;;;;;;;;;5072238;28;20458;-66
2023/01/23 00:59:09;;;;;;;20.50;13.90;;;;;;;;;;5072332;28;20511;-68
2023/01/23 01:01:35;;;;;;;23.03;13.80;;;;;;;;;;5071908;28;20173;-67
2023/01/23 01:04:00;;;;;;;20.60;13.83;;;;;;;;;;5072391;28;20265;-68
2023/01/23 01:06:27;;;;;;;24.20;15.03;;;;;;;;;;5072037;28;20199;-68
2023/01/23 01:08:53;;;;;;;25.47;14.77;;;;;;;;;;5072239;28;20540;-68
2023/01/23 01:11:18;;;;;;;32.60;14.90;;;;;;;;;;5072124;28;20434;-67
2023/01/23 01:13:44;;;;;;;22.07;13.53;;;;;;;;;;5072423;28;20658;-69
2023/01/23 01:16:09;;;;;;;24.90;14.43;;;;;;;;;;5072827;28;20206;-67
2023/01/23 01:18:35;;;;;;;23.57;14.63;;;;;;;;;;5072378;28;20683;-68
2023/01/23 01:21:05;;;;;;;29.87;16.30;;;;;;;;;;5071885;28;20170;-67
2023/01/23 01:23:31;;;;;;;21.60;14.70;;;;;;;;;;5071997;28;20436;-69
2023/01/23 01:25:59;;;;;;;22.80;14.97;;;;;;;;;;5071619;28;20449;-68
2023/01/23 01:28:27;;;;;;;22.27;14.67;;;;;;;;;;5071798;28;20230;-67
2023/01/23 01:30:52;;;;;;;23.97;13.50;;;;;;;;;;5071472;28;20416;-70
2023/01/23 01:33:18;;;;;;;20.33;13.67;;;;;;;;;;5071762;28;20460;-68
2023/01/23 01:35:43;;;;;;;18.13;13.00;;;;;;;;;;5071594;28;20252;-69
2023/01/23 01:38:08;;;;;;;22.37;13.87;;;;;;;;;;5071618;28;20170;-68
2023/01/23 01:40:35;;;;;;;19.43;12.30;;;;;;;;;;5071437;28;20272;-68
2023/01/23 01:43:04;;;;;;;18.80;13.30;;;;;;;;;;5071523;28;20170;-69
2023/01/23 01:45:55;;;;;;;18.90;12.60;;;;;;;;;;5071392;28;20405;-68
2023/01/23 01:48:24;;;;;;;17.20;12.33;;;;;;;;;;5024253;28;20470;-68
2023/01/23 01:50:50;;;;;;;21.30;12.70;;;;;;;;;;5053458;28;20424;-67
2023/01/23 01:53:15;;;;;;;19.20;13.03;;;;;;;;;;5071343;28;20452;-68
2023/01/23 01:55:41;;;;;;;20.90;13.77;;;;;;;;;;5060642;28;20419;-68
2023/01/23 01:58:07;;;;;;;18.10;12.00;;;;;;;;;;5051407;28;20267;-68
2023/01/23 02:00:33;;;;;;;22.03;13.30;;;;;;;;;;5050968;28;20254;-66
2023/01/23 02:03:02;;;;;;;16.73;11.20;;;;;;;;;;5051247;28;21059;-69
2023/01/23 02:05:34;;;;;;;22.80;13.77;;;;;;;;;;5051011;28;20203;-66
2023/01/23 02:08:30;;;;;;;20.23;11.87;;;;;;;;;;5050023;28;20568;-67
2023/01/23 02:10:56;;;;;;;18.87;11.40;;;;;;;;;;5039759;28;20428;-67
2023/01/23 02:13:27;;;;;;;16.87;11.40;;;;;;;;;;5051037;28;20461;-67
2023/01/23 02:15:52;;;;;;;17.90;11.87;;;;;;;;;;5050785;28;20194;-66
2023/01/23 02:18:19;;;;;;;20.30;12.70;;;;;;;;;;5051198;28;20401;-66
2023/01/23 02:20:46;;;;;;;19.07;12.33;;;;;;;;;;5050483;28;20179;-67
2023/01/23 02:23:39;;;;;;;17.77;12.50;;;;;;;;;;5051004;28;20972;-69
2023/01/23 02:26:09;;;;;;;18.40;11.57;;;;;;;;;;5051123;28;21060;-69
2023/01/23 02:28:36;;;;;;;19.20;12.70;;;;;;;;;;5051309;28;20763;-66
2023/01/23 02:31:02;;;;;;;19.60;11.17;;;;;;;;;;5050388;28;20497;-69
2023/01/23 02:33:27;;;;;;;19.80;13.83;;;;;;;;;;5050686;28;20548;-67
2023/01/23 02:35:54;;;;;;;19.17;12.93;;;;;;;;;;5050243;28;20240;-67
2023/01/23 02:38:24;;;;;;;20.07;12.50;;;;;;;;;;5050539;28;20224;-67
2023/01/23 02:40:51;;;;;;;19.70;13.23;;;;;;;;;;5050255;28;20435;-67
2023/01/23 02:43:20;;;;;;;17.93;11.93;;;;;;;;;;5050407;28;20413;-67
2023/01/23 02:45:47;;;;;;;19.87;13.00;;;;;;;;;;5050336;28;20449;-66
2023/01/23 02:48:12;;;;;;;18.00;12.33;;;;;;;;;;5050458;28;20424;-68
2023/01/23 02:50:38;;;;;;;20.03;12.40;;;;;;;;;;5050032;28;20807;-68
2023/01/23 02:53:04;;;;;;;16.10;10.93;;;;;;;;;;5050318;28;20195;-68
2023/01/23 02:55:31;;;;;;;19.00;12.97;;;;;;;;;;5059472;28;20222;-68
2023/01/23 03:00:14;;;;;;;25.93;12.20;;;;;;;;;;5070091;28;20459;-67
2023/01/23 03:00:43;;;;;;;19.87;12.40;;;;;;;;;;5069948;28;20439;-69
2023/01/23 03:03:09;;;;;;;18.30;12.40;;;;;;;;;;5070312;28;20459;-69
2023/01/23 03:05:34;;;;;;;18.00;12.53;;;;;;;;;;5070028;28;20441;-68
2023/01/23 03:08:00;;;;;;;21.53;13.57;;;;;;;;;;5070404;28;20606;-68
2023/01/23 03:10:26;;;;;;;19.20;12.40;;;;;;;;;;5070185;28;20188;-67
2023/01/23 03:12:51;;;;;;;21.43;13.43;;;;;;;;;;5070107;28;21048;-68
2023/01/23 03:15:17;;;;;;;20.67;13.17;;;;;;;;;;5070088;28;20182;-70
2023/01/23 03:17:42;;;;;;;18.80;11.60;;;;;;;;;;5069643;28;20218;-67
2023/01/23 03:20:08;;;;;;;17.40;11.57;;;;;;;;;;5069975;28;20235;-69
2023/01/23 03:22:34;;;;;;;18.73;12.27;;;;;;;;;;5051664;28;20635;-69
2023/01/23 03:25:00;;;;;;;21.30;12.27;;;;;;;;;;5069872;28;20427;-66
2023/01/23 03:27:25;;;;;;;17.47;12.47;;;;;;;;;;5069657;28;20197;-69
2023/01/23 03:32:37;;;;;;;16.83;12.93;;;;;;;;;;5069619;28;20646;-69
2023/01/23 03:35:03;;;;;;;19.67;11.80;;;;;;;;;;5069424;28;20416;-67
2023/01/23 03:37:29;;;;;;;19.97;14.07;;;;;;;;;;5069617;28;20440;-67
2023/01/23 03:42:38;;;;;;;16.83;12.50;;;;;;;;;;5069395;28;20173;-67
2023/01/23 03:45:04;;;;;;;20.10;13.37;;;;;;;;;;5069476;28;20405;-68
2023/01/23 03:47:30;;;;;;;23.13;14.67;;;;;;;;;;5069802;28;20701;-68
2023/01/23 03:49:55;;;;;;;19.43;12.90;;;;;;;;;;5069180;28;20436;-67
2023/01/23 03:52:21;;;;;;;21.27;13.70;;;;;;;;;;5068791;28;20201;-68
2023/01/23 03:54:46;;;;;;;22.40;13.43;;;;;;;;;;5065782;28;20221;-70
2023/01/23 03:57:11;;;;;;;22.53;14.37;;;;;;;;;;5048906;28;20260;-68
2023/01/23 03:59:37;;;;;;;19.83;13.17;;;;;;;;;;5049021;28;20197;-69
2023/01/23 04:02:03;;;;;;;18.17;12.90;;;;;;;;;;5048722;28;20177;-69
2023/01/23 04:04:30;;;;;;;21.60;14.17;;;;;;;;;;5049100;28;20586;-69
2023/01/23 04:06:56;;;;;;;21.07;13.07;;;;;;;;;;5048939;28;20429;-68
2023/01/23 04:09:26;;;;;;;19.30;12.83;;;;;;;;;;5048837;28;20492;-68
2023/01/23 04:11:55;;;;;;;20.50;13.00;;;;;;;;;;5048394;28;20171;-68
2023/01/23 04:14:21;;;;;;;20.67;14.90;;;;;;;;;;5048949;28;20945;-69
2023/01/23 04:16:47;;;;;;;20.63;13.23;;;;;;;;;;5048882;28;20965;-70
2023/01/23 04:19:12;;;;;;;19.93;12.67;;;;;;;;;;5049283;28;20442;-67
2023/01/23 04:21:38;;;;;;;18.37;12.20;;;;;;;;;;5048934;28;20170;-67
2023/01/23 04:24:04;;;;;;;16.77;13.13;;;;;;;;;;5048877;28;20167;-67
2023/01/23 04:26:29;;;;;;;21.60;12.90;;;;;;;;;;5030696;28;20867;-68
2023/01/23 04:28:55;;;;;;;22.67;14.07;;;;;;;;;;5048216;28;20261;-66
2023/01/23 04:31:20;;;;;;;21.20;13.57;;;;;;;;;;5048585;28;20175;-67
2023/01/23 04:33:45;;;;;;;23.47;14.13;;;;;;;;;;5048924;28;20565;-67
2023/01/23 04:36:11;;;;;;;19.50;13.37;;;;;;;;;;5048941;28;20307;-65
2023/01/23 04:38:36;;;;;;;23.10;14.03;;;;;;;;;;5048849;28;20261;-66
2023/01/23 04:41:03;;;;;;;23.23;14.37;;;;;;;;;;5048315;28;20258;-69
2023/01/23 04:43:29;;;;;;;18.03;12.33;;;;;;;;;;5048748;28;20601;-67
2023/01/23 04:45:55;;;;;;;19.40;12.70;;;;;;;;;;5049413;28;20532;-67
2023/01/23 04:48:21;;;;;;;24.50;15.77;;;;;;;;;;5048704;28;20406;-67
2023/01/23 04:50:48;;;;;;;21.63;14.63;;;;;;;;;;5029511;28;20429;-68
2023/01/23 04:53:13;;;;;;;19.43;12.80;;;;;;;;;;5043628;28;20454;-67
2023/01/23 04:55:39;;;;;;;17.70;12.10;;;;;;;;;;5066682;28;20504;-68
2023/01/23 04:58:04;;;;;;;22.93;14.10;;;;;;;;;;5067602;28;20194;-68
2023/01/23 05:00:30;;;;;;;18.30;12.40;;;;;;;;;;5068077;28;20255;-67
2023/01/23 05:02:56;;;;;;;20.20;13.10;;;;;;;;;;5068481;28;20224;-68
2023/01/23 05:05:22;;;;;;;16.30;11.23;;;;;;;;;;5068286;28;20177;-67
2023/01/23 05:07:49;;;;;;;34.17;14.37;;;;;;;;;;5068263;28;20427;-68
2023/01/23 05:10:15;;;;;;;28.33;13.20;;;;;;;;;;5068193;28;20952;-70
2023/01/23 05:12:41;;;;;;;22.00;13.57;;;;;;;;;;5067784;28;20535;-70
2023/01/23 05:15:08;;;;;;;22.33;13.40;;;;;;;;;;5068087;28;20512;-68
2023/01/23 05:17:33;;;;;;;19.07;12.60;;;;;;;;;;5050047;28;20243;-68
2023/01/23 05:19:58;;;;;;;19.00;12.03;;;;;;;;;;5062185;28;20825;-68
2023/01/23 05:22:24;;;;;;;19.40;12.50;;;;;;;;;;5053155;28;20186;-68
2023/01/23 05:24:49;;;;;;;22.73;14.63;;;;;;;;;;5047938;28;20178;-67
2023/01/23 05:27:15;;;;;;;19.27;13.43;;;;;;;;;;5047982;28;20221;-68
2023/01/23 05:29:40;;;;;;;23.03;13.77;;;;;;;;;;5055162;28;20174;-68
2023/01/23 05:32:06;;;;;;;20.23;12.63;;;;;;;;;;5067926;28;20269;-68
2023/01/23 05:34:32;;;;;;;17.17;12.83;;;;;;;;;;5060895;28;20209;-68
2023/01/23 05:36:57;;;;;;;20.33;11.80;;;;;;;;;;5067111;28;20738;-67
2023/01/23 05:39:22;;;;;;;19.73;12.30;;;;;;;;;;5067975;28;20174;-69
2023/01/23 05:41:48;;;;;;;19.80;12.93;;;;;;;;;;5069028;28;20170;-67
2023/01/23 05:44:13;;;;;;;20.73;12.60;;;;;;;;;;5071765;28;20174;-68
2023/01/23 05:46:39;;;;;;;20.00;12.70;;;;;;;;;;5070575;28;20195;-69
2023/01/23 05:49:04;;;;;;;21.30;12.87;;;;;;;;;;5069966;28;20174;-66
2023/01/23 05:51:33;;;;;;;20.60;13.73;;;;;;;;;;5061322;28;20170;-69
2023/01/23 05:53:59;;;;;;;18.80;11.97;;;;;;;;;;5058560;28;20194;-67
2023/01/23 05:56:26;;;;;;;19.90;13.83;;;;;;;;;;5050076;28;20922;-67
2023/01/23 05:58:51;;;;;;;19.30;12.60;;;;;;;;;;5049192;28;20413;-69
2023/01/23 06:01:18;;;;;;;23.87;13.57;;;;;;;;;;5048408;28;20488;-69
2023/01/23 06:03:43;;;;;;;21.37;12.57;;;;;;;;;;5048515;28;20176;-67
2023/01/23 06:06:09;;;;;;;21.57;11.93;;;;;;;;;;5054800;28;20505;-67
2023/01/23 06:08:34;;;;;;;19.20;12.07;;;;;;;;;;5068547;28;20622;-69
2023/01/23 06:11:00;;;;;;;22.03;13.17;;;;;;;;;;5068703;28;20253;-68
2023/01/23 06:13:27;;;;;;;20.07;13.17;;;;;;;;;;5052486;28;20194;-68
2023/01/23 06:15:52;;;;;;;20.93;12.93;;;;;;;;;;5052458;28;20190;-71
2023/01/23 06:18:18;;;;;;;18.90;12.60;;;;;;;;;;5035680;28;20428;-71
2023/01/23 06:20:43;;;;;;;29.00;13.77;;;;;;;;;;5052814;28;20171;-69
2023/01/23 06:23:09;;;;;;;22.73;14.13;;;;;;;;;;5055753;28;20788;-69
2023/01/23 06:25:35;;;;;;;20.17;13.67;;;;;;;;;;5062987;28;20175;-69
2023/01/23 06:28:01;;;;;;;22.77;13.27;;;;;;;;;;5042384;28;20509;-69
2023/01/23 06:30:26;;;;;;;24.73;13.87;;;;;;;;;;5057769;28;20443;-68
2023/01/23 06:32:52;;;;;;;24.23;12.67;;;;;;;;;;5066925;28;20281;-68
2023/01/23 06:35:17;;;;;;;20.60;12.73;;;;;;;;;;5057669;28;20202;-70
2023/01/23 06:37:43;;;;;;;23.13;12.47;;;;;;;;;;5052780;28;20296;-70
2023/01/23 06:40:29;;;;;;;21.07;12.97;;;;;;;;;;5058601;28;20180;-72
2023/01/23 06:42:55;;;;;;;26.47;13.53;;;;;;;;;;4949149;28;21262;-67
2023/01/23 06:45:20;;;;;;;24.10;14.57;;;;;;;;;;4960773;28;20441;-69
2023/01/23 06:47:46;;;;;;;20.20;12.90;;;;;;;;;;4963916;28;20464;-71
2023/01/23 06:50:11;;;;;;;19.73;13.63;;;;;;;;;;4962330;28;20189;-68
2023/01/23 06:52:37;;;;;;;21.00;12.40;;;;;;;;;;4956751;28;20210;-67
2023/01/23 06:55:02;;;;;;;24.83;12.83;;;;;;;;;;4961530;28;20814;-68
2023/01/23 06:57:28;;;;;;;23.00;14.23;;;;;;;;;;4969778;28;20229;-69
2023/01/23 06:59:53;;;;;;;18.60;12.33;;;;;;;;;;4966212;28;20197;-69
2023/01/23 07:02:19;;;;;;;20.00;12.30;;;;;;;;;;4959977;28;20189;-69
2023/01/23 07:04:44;;;;;;;29.40;13.77;;;;;;;;;;4965865;28;20924;-67
2023/01/23 07:07:09;;;;;;;24.63;15.40;;;;;;;;;;4966104;28;20213;-69
2023/01/23 07:09:35;;;;;;;33.67;14.27;;;;;;;;;;4965890;28;20730;-68
2023/01/23 07:12:00;;;;;;;71.23;17.73;;;;;;;;;;4960663;28;20185;-68
2023/01/23 07:14:27;;;;;;;24.73;12.80;;;;;;;;;;4965148;28;20212;-69
2023/01/23 07:16:54;;;;;;;19.43;13.07;;;;;;;;;;4956372;28;20238;-68
2023/01/23 07:19:19;;;;;;;22.23;13.43;;;;;;;;;;4990187;28;20427;-70
2023/01/23 07:21:47;;;;;;;22.37;13.50;;;;;;;;;;5063704;28;20433;-67
2023/01/23 07:24:12;;;;;;;21.20;12.67;;;;;;;;;;5062117;28;20186;-68
2023/01/23 07:26:38;;;;;;;21.93;12.87;;;;;;;;;;5060633;28;20825;-69
2023/01/23 07:29:05;;;;;;;21.43;12.67;;;;;;;;;;5064906;28;20778;-67
2023/01/23 07:31:30;;;;;;;20.30;12.60;;;;;;;;;;5056340;28;20666;-68
2023/01/23 07:33:56;;;;;;;22.57;12.77;;;;;;;;;;5069216;28;20452;-69
2023/01/23 07:36:21;;;;;;;20.37;14.07;;;;;;;;;;5069112;28;20204;-69
2023/01/23 07:38:47;;;;;;;18.70;12.97;;;;;;;;;;5069280;28;20193;-69
2023/01/23 07:41:12;;;;;;;23.57;13.00;;;;;;;;;;5068746;28;20689;-68
2023/01/23 07:43:37;;;;;;;28.13;13.67;;;;;;;;;;5069002;28;20170;-68
2023/01/23 07:46:03;;;;;;;20.97;13.00;;;;;;;;;;5081348;28;20223;-69
2023/01/23 07:48:28;;;;;;;23.17;14.50;;;;;;;;;;5066973;28;20178;-68
2023/01/23 07:50:54;;;;;;;20.83;13.33;;;;;;;;;;5049032;28;20178;-66
2023/01/23 07:53:20;;;;;;;22.93;13.13;;;;;;;;;;5031265;28;20289;-69
2023/01/23 07:55:45;;;;;;;23.87;14.87;;;;;;;;;;5048937;28;20501;-66
2023/01/23 07:58:11;;;;;;;21.53;13.60;;;;;;;;;;5049068;28;20171;-67
2023/01/23 08:00:36;;;;;;;24.60;14.43;;;;;;;;;;5051920;28;21056;-70
2023/01/23 08:03:01;;;;;;;22.23;14.20;;;;;;;;;;5089170;28;20207;-68
2023/01/23 08:05:27;;;;;;;21.13;13.60;;;;;;;;;;5088904;28;20173;-68
2023/01/23 08:07:52;;;;;;;19.93;13.13;;;;;;;;;;5088874;28;20225;-70
2023/01/23 08:10:18;;;;;;;23.40;15.07;;;;;;;;;;5088509;28;20177;-69
2023/01/23 08:12:44;;;;;;;21.67;13.53;;;;;;;;;;5070942;28;20239;-68
2023/01/23 08:15:10;;;;;;;22.93;13.60;;;;;;;;;;5068475;28;20188;-67
2023/01/23 08:17:35;;;;;;;24.33;14.30;;;;;;;;;;5068555;28;20198;-68
2023/01/23 08:20:00;;;;;;;19.70;12.80;;;;;;;;;;5068452;28;20643;-70
2023/01/23 08:22:26;;;;;;;14.50;11.50;;;;;;;;;;5068252;28;20254;-67
2023/01/23 08:24:51;;;;;;;18.60;11.40;;;;;;;;;;5067416;28;20178;-68
2023/01/23 08:27:17;;;;;;;22.00;12.77;;;;;;;;;;5048356;28;20198;-68
2023/01/23 08:29:42;;;;;;;21.53;13.07;;;;;;;;;;5048333;28;20309;-70
2023/01/23 08:32:09;;;;;;;14.97;10.70;;;;;;;;;;5047822;28;20484;-69
2023/01/23 08:34:34;;;;;;;18.17;11.70;;;;;;;;;;5048000;28;20216;-70
2023/01/23 08:37:00;;;;;;;19.13;11.30;;;;;;;;;;5048151;28;20942;-69
2023/01/23 08:39:25;;;;;;;15.33;10.53;;;;;;;;;;5048220;28;20190;-67
2023/01/23 08:41:51;;;;;;;19.27;11.90;;;;;;;;;;5048221;28;20778;-68
2023/01/23 08:44:16;;;;;;;17.27;11.00;;;;;;;;;;5048353;28;20179;-70
2023/01/23 08:46:44;;;;;;;17.43;11.03;;;;;;;;;;5048405;28;20889;-70
2023/01/23 08:49:10;;;;;;;17.70;10.80;;;;;;;;;;5048284;28;20177;-69
2023/01/23 08:51:35;;;;;;;12.20;9.10;;;;;;;;;;5048034;28;20401;-69
2023/01/23 08:54:01;;;;;;;17.93;10.60;;;;;;;;;;5048098;28;20293;-68
2023/01/23 08:56:26;;;;;;;16.63;10.97;;;;;;;;;;5048147;28;20594;-69
2023/01/23 08:58:52;;;;;;;19.10;11.47;;;;;;;;;;5048474;28;20202;-70
2023/01/23 09:01:21;;;;;;;16.67;10.43;;;;;;;;;;5048117;28;20178;-69
2023/01/23 09:03:47;;;;;;;17.30;10.97;;;;;;;;;;5030725;28;20175;-68
2023/01/23 09:06:15;;;;;;;18.70;10.63;;;;;;;;;;5048159;28;20850;-68
2023/01/23 09:08:40;;;;;;;18.60;11.20;;;;;;;;;;5065374;28;20293;-69
2023/01/23 09:11:08;;;;;;;17.37;11.03;;;;;;;;;;5062856;28;20441;-69
2023/01/23 09:13:34;;;;;;;19.40;11.53;;;;;;;;;;5067751;28;20191;-70
2023/01/23 09:16:00;;;;;;;19.20;11.80;;;;;;;;;;5068961;28;20984;-70
2023/01/23 09:18:26;;;;;;;15.13;10.20;;;;;;;;;;5071913;28;20805;-69
2023/01/23 09:20:52;;;;;;;16.17;10.60;;;;;;;;;;5071746;28;20481;-66
2023/01/23 09:23:18;;;;;;;15.40;10.57;;;;;;;;;;5053692;28;20205;-70
2023/01/23 09:25:43;;;;;;;18.63;11.60;;;;;;;;;;5071927;28;20451;-71
2023/01/23 09:28:09;;;;;;;15.93;11.20;;;;;;;;;;5068908;28;20644;-69
2023/01/23 09:30:34;;;;;;;16.30;9.70;;;;;;;;;;5064382;28;20190;-70
2023/01/23 09:33:00;;;;;;;16.23;9.73;;;;;;;;;;5070555;28;20240;-71
2023/01/23 09:35:25;;;;;;;19.37;11.23;;;;;;;;;;5055873;28;20179;-71
2023/01/23 09:38:00;;;;;;;18.70;9.97;;;;;;;;;;5056145;28;20202;-69
2023/01/23 09:40:29;;;;;;;16.70;11.00;;;;;;;;;;5068069;28;20196;-69
2023/01/23 09:43:16;;;;;;;14.10;9.53;;;;;;;;;;5065154;28;20715;-70
2023/01/23 09:45:56;;;;;;;18.73;11.43;;;;;;;;;;5067690;28;20437;-68
2023/01/23 09:48:41;;;;;;;19.13;11.33;;;;;;;;;;5064859;28;20479;-70
2023/01/23 09:51:12;;;;;;;17.60;11.37;;;;;;;;;;5047927;28;20441;-69
2023/01/23 09:53:39;;;;;;;19.17;10.70;;;;;;;;;;5062469;28;20579;-71
2023/01/23 09:56:23;;;;;;;15.77;10.50;;;;;;;;;;5065727;28;20443;-72
2023/01/23 09:58:56;;;;;;;21.77;12.10;;;;;;;;;;5072273;28;20523;-69
2023/01/23 10:01:25;;;;;;;21.10;11.53;;;;;;;;;;5071160;28;20420;-70
2023/01/23 10:03:50;;;;;;;25.07;12.40;;;;;;;;;;5073187;28;20731;-70
2023/01/23 10:06:23;;;;;;;22.10;12.43;;;;;;;;;;5069165;28;20514;-71
2023/01/23 10:09:00;;;;;;;18.23;12.40;;;;;;;;;;5068386;28;20631;-71
2023/01/23 10:11:47;;;;;;;16.87;11.00;;;;;;;;;;5068316;28;20429;-71
2023/01/23 10:14:30;;;;;;;19.87;13.10;;;;;;;;;;5068363;28;20448;-69
2023/01/23 10:17:12;;;;;;;19.13;10.70;;;;;;;;;;5064937;28;20847;-69
2023/01/23 10:19:50;;;;;;;18.73;11.90;;;;;;;;;;5063200;28;20442;-69
2023/01/23 10:22:27;;;;;;;22.37;11.30;;;;;;;;;;5070937;28;20501;-69
2023/01/23 10:24:54;;;;;;;20.90;13.60;;;;;;;;;;5051332;28;20423;-71
2023/01/23 10:27:23;;;;;;;20.40;12.57;;;;;;;;;;5065491;28;20457;-69
2023/01/23 10:29:55;;;;;;;19.60;12.00;;;;;;;;;;5064635;28;20463;-69
2023/01/23 10:32:30;;;;;;;19.57;10.80;;;;;;;;;;5047021;28;20441;-70
2023/01/23 10:35:23;;;;;;;19.10;11.10;;;;;;;;;;5065562;28;20418;-71
2023/01/23 10:38:01;;;;;;;26.40;13.67;;;;;;;;;;5051024;28;20444;-70
2023/01/23 10:43:14;;;;;;;18.03;11.73;;;;;;;;;;5069954;28;20563;-71
2023/01/23 10:45:41;;;;;;;24.30;14.70;;;;;;;;;;5070257;28;20420;-69
2023/01/23 10:48:27;;;;;;;29.03;11.87;;;;;;;;;;5052392;28;20501;-68
2023/01/23 10:50:53;;;;;;;19.83;11.70;;;;;;;;;;5066463;28;20817;-69
2023/01/23 10:53:20;;;;;;;19.13;12.37;;;;;;;;;;5067831;28;20889;-68
2023/01/23 10:55:46;;;;;;;20.00;12.23;;;;;;;;;;5070311;28;20428;-69
2023/01/23 10:58:43;;;;;;;17.63;11.57;;;;;;;;;;5069991;28;20448;-69
2023/01/23 11:01:25;;;;;;;20.47;13.67;;;;;;;;;;5066059;28;20486;-68
2023/01/23 11:03:50;;;;;;;19.93;13.30;;;;;;;;;;5051946;28;20412;-68
2023/01/23 11:06:19;;;;;;;21.60;12.37;;;;;;;;;;5052217;28;20447;-68
2023/01/23 11:08:55;;;;;;;16.50;11.00;;;;;;;;;;5052243;28;20495;-69
2023/01/23 11:11:24;;;;;;;18.73;12.90;;;;;;;;;;5065152;28;20938;-68
2023/01/23 11:14:11;;;;;;;23.20;14.43;;;;;;;;;;5069018;28;20846;-70
2023/01/23 11:16:37;;;;;;;24.80;13.23;;;;;;;;;;5069772;28;20447;-71
2023/01/23 11:19:08;;;;;;;23.37;13.83;;;;;;;;;;5069925;28;21019;-69
2023/01/23 11:21:35;;;;;;;22.33;13.83;;;;;;;;;;5064322;28;20489;-69
2023/01/23 11:24:19;;;;;;;22.10;13.10;;;;;;;;;;5070583;28;20477;-69
2023/01/23 11:26:45;;;;;;;24.33;13.70;;;;;;;;;;5065176;28;20518;-70
2023/01/23 11:29:22;;;;;;;34.87;14.40;;;;;;;;;;5069644;28;20413;-70
2023/01/23 11:31:54;;;;;;;20.90;12.50;;;;;;;;;;5065385;28;20182;-69
2023/01/23 11:34:26;;;;;;;19.57;12.00;;;;;;;;;;5068905;28;20486;-70
2023/01/23 11:37:01;;;;;;;18.40;11.10;;;;;;;;;;5069451;28;20785;-70
2023/01/23 11:39:38;;;;;;;27.23;12.70;;;;;;;;;;5066051;28;20404;-70
2023/01/23 11:42:03;;;;;;;19.37;13.20;;;;;;;;;;5063765;28;20408;-70
2023/01/23 11:44:31;;;;;;;19.87;12.20;;;;;;;;;;5065775;28;20429;-70
2023/01/23 11:47:17;;;;;;;23.20;13.17;;;;;;;;;;5068620;28;20185;-68
2023/01/23 11:50:04;;;;;;;21.20;13.30;;;;;;;;;;5064475;28;20547;-68
2023/01/23 11:52:32;;;;;;;20.77;13.10;;;;;;;;;;5067660;28;20503;-70
2023/01/23 11:55:16;;;;;;;21.97;13.30;;;;;;;;;;5069063;28;20424;-71
2023/01/23 11:57:47;;;;;;;23.43;13.63;;;;;;;;;;5069408;28;20428;-70
2023/01/23 12:00:32;;;;;;;18.70;10.77;;;;;;;;;;5063001;28;20432;-67
2023/01/23 12:03:20;;;;;;;23.37;13.17;;;;;;;;;;5070634;28;21029;-69
2023/01/23 12:05:51;;;;;;;21.23;12.10;;;;;;;;;;5068433;28;20432;-68
2023/01/23 12:08:43;;;;;;;19.67;12.60;;;;;;;;;;5069798;28;20492;-69
2023/01/23 12:11:18;;;;;;;18.97;12.40;;;;;;;;;;5067149;28;20435;-69
2023/01/23 12:14:02;;;;;;;20.60;13.10;;;;;;;;;;5062109;28;20471;-68
2023/01/23 12:16:33;;;;;;;17.47;11.50;;;;;;;;;;5062098;28;20464;-70
2023/01/23 12:19:02;;;;;;;19.87;11.83;;;;;;;;;;5068102;28;20413;-70
2023/01/23 12:21:37;;;;;;;18.87;11.57;;;;;;;;;;5067832;28;20412;-70
2023/01/23 12:24:05;;;;;;;21.00;12.83;;;;;;;;;;5062162;28;20436;-70
2023/01/23 12:26:32;;;;;;;20.20;12.87;;;;;;;;;;5060285;28;20526;-70
2023/01/23 12:29:09;;;;;;;21.30;12.20;;;;;;;;;;5048377;28;20862;-69
2023/01/23 12:31:41;;;;;;;21.60;12.60;;;;;;;;;;5052551;28;20428;-71
2023/01/23 12:34:06;;;;;;;17.57;12.00;;;;;;;;;;5066951;28;20447;-71
2023/01/23 12:36:53;;;;;;;22.70;11.60;;;;;;;;;;5047540;28;21103;-70
2023/01/23 12:39:41;;;;;;;17.50;11.53;;;;;;;;;;5047204;28;20167;-67
2023/01/23 12:42:17;;;;;;;21.03;11.57;;;;;;;;;;5063265;28;20414;-70
2023/01/23 12:45:15;;;;;;;20.07;11.80;;;;;;;;;;5047759;28;20394;-69
2023/01/23 12:47:56;;;;;;;19.60;11.93;;;;;;;;;;5055462;28;20464;-68
2023/01/23 12:50:42;;;;;;;15.90;9.37;;;;;;;;;;5067002;28;20417;-68
2023/01/23 12:53:13;;;;;;;18.00;10.20;;;;;;;;;;5056823;28;20479;-67
2023/01/23 12:56:06;;;;;;;19.23;12.37;;;;;;;;;;5059525;28;20427;-70
2023/01/23 12:58:35;;;;;;;18.80;12.70;;;;;;;;;;5067168;28;20454;-68
2023/01/23 13:01:12;;;;;;;15.90;11.80;;;;;;;;;;5067079;28;20481;-68
2023/01/23 13:03:56;;;;;;;17.27;11.30;;;;;;;;;;5065069;28;20875;-68
2023/01/23 13:06:40;;;;;;;15.60;10.70;;;;;;;;;;5066291;28;20420;-67
2023/01/23 13:09:43;;;;;;;18.23;11.77;;;;;;;;;;5067834;28;20404;-69
2023/01/23 13:12:26;;;;;;;18.90;11.97;;;;;;;;;;4981582;28;20435;-69
2023/01/23 13:15:12;;;;;;;21.97;11.13;;;;;;;;;;5053330;28;20466;-68
2023/01/23 13:17:48;;;;;;;16.23;10.30;;;;;;;;;;5067000;28;20535;-69
2023/01/23 13:23:35;;;;;;;19.23;11.67;;;;;;;;;;5067663;28;20395;-69
2023/01/23 13:26:19;;;;;;;19.07;11.30;;;;;;;;;;5067109;28;20499;-71
2023/01/23 13:28:55;;;;;;;16.80;11.00;;;;;;;;;;5064909;28;20422;-68
2023/01/23 13:31:35;;;;;;;23.53;11.60;;;;;;;;;;5063123;28;20455;-68
2023/01/23 13:34:14;;;;;;;14.10;11.03;;;;;;;;;;5067004;28;20444;-69
2023/01/23 13:36:40;;;;;;;20.33;11.30;;;;;;;;;;5061794;28;20452;-69
2023/01/23 13:39:15;;;;;;;17.20;11.60;;;;;;;;;;5062391;28;20493;-68
2023/01/23 13:41:40;;;;;;;17.80;10.93;;;;;;;;;;5046692;28;20635;-69
2023/01/23 13:44:25;;;;;;;17.13;10.03;;;;;;;;;;5047159;28;20397;-68
2023/01/23 13:47:06;;;;;;;19.60;12.00;;;;;;;;;;5046722;28;20703;-67
2023/01/23 13:49:54;;;;;;;18.50;10.90;;;;;;;;;;5061104;28;20471;-69
2023/01/23 13:58:03;;;;;;;16.77;10.93;;;;;;;;;;5053192;28;20475;-69
2023/01/23 14:00:31;;;;;;;18.83;11.93;;;;;;;;;;5065486;28;20454;-69
2023/01/23 14:06:09;;;;;;;18.53;10.63;;;;;;;;;;5069166;28;20781;-70
2023/01/23 14:08:54;;;;;;;13.93;10.20;;;;;;;;;;5065938;28;20546;-70
2023/01/23 14:11:21;;;;;;;20.63;11.40;;;;;;;;;;5070809;28;20481;-69
2023/01/23 14:16:47;;;;;;;18.53;12.27;;;;;;;;;;5071391;28;20455;-69
2023/01/23 14:19:25;;;;;;;19.40;10.97;;;;;;;;;;5070385;28;20833;-69
2023/01/23 14:21:54;;;;;;;16.20;10.67;;;;;;;;;;5070282;28;20426;-69
2023/01/23 14:24:25;;;;;;;18.73;11.10;;;;;;;;;;5067745;28;20725;-70
2023/01/23 14:26:58;;;;;;;17.27;12.37;;;;;;;;;;5070699;28;20520;-70
2023/01/23 14:29:25;;;;;;;13.50;9.90;;;;;;;;;;5070497;28;20491;-69
2023/01/23 14:31:50;;;;;;;17.77;12.20;;;;;;;;;;5052499;28;20882;-69
2023/01/23 14:34:18;;;;;;;16.93;11.30;;;;;;;;;;5070088;28;20460;-71
2023/01/23 14:36:57;;;;;;;19.73;12.13;;;;;;;;;;5070094;28;20202;-70
2023/01/23 14:39:27;;;;;;;14.00;9.73;;;;;;;;;;5070389;28;20461;-70
2023/01/23 14:41:56;;;;;;;19.43;11.17;;;;;;;;;;5069949;28;20405;-70
2023/01/23 14:44:29;;;;;;;21.17;11.03;;;;;;;;;;5069891;28;20411;-70
2023/01/23 14:46:58;;;;;;;18.30;10.80;;;;;;;;;;5070093;28;20843;-71
2023/01/23 14:49:35;;;;;;;17.23;11.10;;;;;;;;;;5070302;28;20412;-71
2023/01/23 14:52:06;;;;;;;14.57;10.03;;;;;;;;;;5069755;28;20454;-70